sensor_id;sensor_type;location;lat;lon;timestamp;pressure;altitude;pressure_sealevel;temperature;humidity
71956;BME280;59829;50.562;6.258;2023-05-03T00:04:21;96722.50;;;4.15;83.04
71956;BME280;59829;50.562;6.258;2023-05-03T00:34:23;96715.13;;;3.67;84.53
71956;BME280;59829;50.562;6.258;2023-05-03T01:04:23;96717.22;;;3.55;86.61
71956;BME280;59829;50.562;6.258;2023-05-03T02:04:33;96718.31;;;2.53;88.63
71956;BME280;59829;50.562;6.258;2023-05-03T02:34:33;96728.16;;;2.36;90.50
71956;BME280;59829;50.562;6.258;2023-05-03T03:04:33;96716.66;;;2.01;91.34
71956;BME280;59829;50.562;6.258;2023-05-03T03:34:34;96687.81;;;2.06;93.04
71956;BME280;59829;50.562;6.258;2023-05-03T04:04:34;96648.75;;;1.64;93.12
71956;BME280;59829;50.562;6.258;2023-05-03T04:34:35;96682.38;;;1.66;94.98
71956;BME280;59829;50.562;6.258;2023-05-03T05:04:36;96684.47;;;1.79;95.67
71956;BME280;59829;50.562;6.258;2023-05-03T05:34:37;96722.03;;;2.43;97.77
71956;BME280;59829;50.562;6.258;2023-05-03T06:04:37;96729.53;;;3.19;98.64
71956;BME280;59829;50.562;6.258;2023-05-03T06:34:37;96741.84;;;4.39;99.81
71956;BME280;59829;50.562;6.258;2023-05-03T07:04:38;96723.53;;;5.69;99.34
71956;BME280;59829;50.562;6.258;2023-05-03T07:34:38;96722.63;;;6.59;97.13
71956;BME280;59829;50.562;6.258;2023-05-03T08:04:39;96699.03;;;7.39;94.07
71956;BME280;59829;50.562;6.258;2023-05-03T08:34:39;96689.19;;;8.10;90.27
71956;BME280;59829;50.562;6.258;2023-05-03T09:04:39;96691.41;;;8.76;86.91
71956;BME280;59829;50.562;6.258;2023-05-03T09:34:40;96674.78;;;9.55;82.99
71956;BME280;59829;50.562;6.258;2023-05-03T10:04:43;96664.13;;;10.15;80.64
71956;BME280;59829;50.562;6.258;2023-05-03T10:34:46;96662.19;;;10.71;78.38
71956;BME280;59829;50.562;6.258;2023-05-03T11:04:48;96650.13;;;11.35;75.91
71956;BME280;59829;50.562;6.258;2023-05-03T11:34:49;96621.75;;;11.86;73.21
71956;BME280;59829;50.562;6.258;2023-05-03T12:04:49;96612.13;;;12.47;70.89
71956;BME280;59829;50.562;6.258;2023-05-03T12:34:49;96589.03;;;13.14;68.66
71956;BME280;59829;50.562;6.258;2023-05-03T13:04:50;96557.72;;;13.63;66.38
71956;BME280;59829;50.562;6.258;2023-05-03T13:34:54;96522.84;;;14.12;64.38
71956;BME280;59829;50.562;6.258;2023-05-03T14:04:54;96480.81;;;14.21;62.60
71956;BME280;59829;50.562;6.258;2023-05-03T14:34:55;96470.19;;;14.66;61.10
71956;BME280;59829;50.562;6.258;2023-05-03T15:04:56;96454.88;;;14.64;59.71
71956;BME280;59829;50.562;6.258;2023-05-03T15:34:56;96437.22;;;14.69;58.59
71956;BME280;59829;50.562;6.258;2023-05-03T16:04:57;96442.41;;;14.79;57.53
71956;BME280;59829;50.562;6.258;2023-05-03T16:34:57;96424.50;;;14.87;56.51
71956;BME280;59829;50.562;6.258;2023-05-03T17:04:57;96413.78;;;14.92;55.50
71956;BME280;59829;50.562;6.258;2023-05-03T17:34:58;96398.06;;;14.95;54.95
71956;BME280;59829;50.562;6.258;2023-05-03T18:04:58;96401.28;;;14.77;54.28
71956;BME280;59829;50.562;6.258;2023-05-03T18:34:58;96399.03;;;13.83;54.22
71956;BME280;59829;50.562;6.258;2023-05-03T19:04:59;96402.25;;;13.02;54.57
71956;BME280;59829;50.562;6.258;2023-05-03T19:35:00;96406.59;;;12.13;55.84
71956;BME280;59829;50.562;6.258;2023-05-03T20:05:01;96416.72;;;11.35;57.53
71956;BME280;59829;50.562;6.258;2023-05-03T20:35:07;96404.97;;;10.61;59.22
71956;BME280;59829;50.562;6.258;2023-05-03T21:05:08;96387.69;;;9.89;60.98
71956;BME280;59829;50.562;6.258;2023-05-03T21:35:10;96377.81;;;9.20;62.87
71956;BME280;59829;50.562;6.258;2023-05-03T22:05:10;96339.84;;;8.61;65.19
71956;BME280;59829;50.562;6.258;2023-05-03T22:35:15;96338.47;;;8.29;67.35
71956;BME280;59829;50.562;6.258;2023-05-03T23:05:15;96336.72;;;7.60;69.59
71956;BME280;59829;50.562;6.258;2023-05-03T23:35:16;96296.28;;;7.11;71.65
